createdAt,value
2018-02-04T00:00:59.035Z,1.10
2018-02-04T00:03:26.578Z,1.10
2018-02-04T00:05:54.135Z,1.00
2018-02-04T00:08:21.682Z,1.00
2018-02-04T00:10:49.254Z,0.90
2018-02-04T00:13:16.810Z,0.90
2018-02-04T00:15:44.342Z,0.90
2018-02-04T00:18:11.887Z,0.90
2018-02-04T00:20:39.436Z,0.90
2018-02-04T00:23:07.010Z,0.90
2018-02-04T00:25:35.334Z,0.90
2018-02-04T00:28:03.019Z,0.90
2018-02-04T00:30:30.578Z,0.90
2018-02-04T00:33:05.971Z,0.90
2018-02-04T00:35:34.305Z,0.90
2018-02-04T00:38:01.862Z,0.90
2018-02-04T00:40:29.415Z,0.90
2018-02-04T00:42:56.960Z,0.90
2018-02-04T00:45:24.508Z,0.90
2018-02-04T00:47:52.082Z,0.90
2018-02-04T00:50:19.626Z,0.90
2018-02-04T00:52:47.170Z,0.90
2018-02-04T00:55:14.732Z,0.90
2018-02-04T00:57:42.298Z,0.90
2018-02-04T01:00:09.877Z,1.00
2018-02-04T01:02:37.424Z,1.00
2018-02-04T01:05:04.987Z,1.00
2018-02-04T01:07:32.526Z,1.00
2018-02-04T01:10:00.897Z,0.90
2018-02-04T01:12:28.463Z,0.90
2018-02-04T01:15:07.177Z,0.90
2018-02-04T01:17:35.558Z,0.90
2018-02-04T01:20:03.166Z,0.90
2018-02-04T01:22:30.733Z,1.00
2018-02-04T01:24:58.284Z,1.00
2018-02-04T01:27:25.835Z,1.00
2018-02-04T01:29:53.402Z,1.00
2018-02-04T01:32:20.956Z,1.10
2018-02-04T01:34:48.504Z,1.10
2018-02-04T01:37:16.050Z,1.10
2018-02-04T01:39:44.359Z,1.00
2018-02-04T01:42:11.933Z,1.00
2018-02-04T01:44:40.284Z,1.00
2018-02-04T01:47:07.822Z,1.00
2018-02-04T01:49:36.140Z,1.00
2018-02-04T01:52:03.688Z,1.00
2018-02-04T01:54:31.267Z,0.90
2018-02-04T01:56:58.825Z,0.90
2018-02-04T01:59:26.366Z,0.90
2018-02-04T02:01:53.918Z,0.80
2018-02-04T02:04:21.465Z,0.80
2018-02-04T02:06:49.798Z,0.80
2018-02-04T02:09:17.345Z,0.70
2018-02-04T02:11:44.893Z,0.70
2018-02-04T02:14:12.442Z,0.70
2018-02-04T02:16:39.981Z,0.70
2018-02-04T02:19:08.290Z,0.70
2018-02-04T02:21:35.836Z,0.70
2018-02-04T02:24:03.405Z,0.70
2018-02-04T02:26:30.962Z,0.60
2018-02-04T02:28:58.522Z,0.60
2018-02-04T02:31:26.070Z,0.60
2018-02-04T02:33:53.615Z,0.60
2018-02-04T02:36:21.204Z,0.60
2018-02-04T02:38:48.742Z,0.60
2018-02-04T02:41:16.283Z,0.60
2018-02-04T02:43:44.626Z,0.60
2018-02-04T02:46:12.168Z,0.60
2018-02-04T02:48:39.738Z,0.60
2018-02-04T02:51:07.293Z,0.60
2018-02-04T02:53:34.845Z,0.50
2018-02-04T02:56:02.406Z,0.50
2018-02-04T02:58:29.972Z,0.50
2018-02-04T03:00:57.535Z,0.50
2018-02-04T03:03:25.091Z,0.60
2018-02-04T03:05:52.683Z,0.60
2018-02-04T03:08:20.230Z,0.50
2018-02-04T03:10:47.873Z,0.50
2018-02-04T03:13:15.450Z,0.50
2018-02-04T03:15:43.009Z,0.40
2018-02-04T03:18:10.555Z,0.40
2018-02-04T03:20:38.099Z,0.40
2018-02-04T03:23:05.669Z,0.30
2018-02-04T03:25:33.234Z,0.20
2018-02-04T03:28:00.776Z,0.20
2018-02-04T03:30:30.288Z,0.10
2018-02-04T03:32:57.838Z,0.00
2018-02-04T03:35:25.388Z,0.00
2018-02-04T03:37:53.726Z,0.00
2018-02-04T03:40:21.275Z,-0.10
2018-02-04T03:42:48.818Z,0.00
2018-02-04T03:45:16.362Z,0.00
2018-02-04T03:47:44.253Z,-0.10
2018-02-04T03:50:11.836Z,0.00
2018-02-04T03:52:39.374Z,0.00
2018-02-04T03:55:06.933Z,0.00
2018-02-04T03:57:34.475Z,0.00
2018-02-04T04:00:02.027Z,0.10
2018-02-04T04:02:29.594Z,0.20
2018-02-04T04:04:57.138Z,0.20
2018-02-04T04:07:25.448Z,0.30
2018-02-04T04:09:52.991Z,0.30
2018-02-04T04:12:20.542Z,0.40
2018-02-04T04:14:48.114Z,0.40
2018-02-04T04:17:15.667Z,0.40
2018-02-04T04:19:43.206Z,0.40
2018-02-04T04:22:11.515Z,0.40
2018-02-04T04:24:39.064Z,0.40
2018-02-04T04:27:06.646Z,0.50
2018-02-04T04:29:34.191Z,0.50
2018-02-04T04:32:01.761Z,0.50
2018-02-04T04:34:29.317Z,0.50
2018-02-04T04:36:56.865Z,0.50
2018-02-04T04:39:24.430Z,0.50
2018-02-04T04:41:51.970Z,0.50
2018-02-04T04:44:19.528Z,0.40
2018-02-04T04:46:47.832Z,0.40
2018-02-04T04:49:15.378Z,0.40
2018-02-04T04:51:43.020Z,0.40
2018-02-04T04:54:11.339Z,0.20
2018-02-04T04:56:38.910Z,0.20
2018-02-04T04:59:06.454Z,0.10
2018-02-04T05:01:33.998Z,0.00
2018-02-04T05:04:01.580Z,-0.20
2018-02-04T05:06:29.136Z,-0.30
2018-02-04T05:08:56.690Z,-0.40
2018-02-04T05:11:24.242Z,-0.40
2018-02-04T05:13:51.787Z,-0.50
2018-02-04T05:16:20.130Z,-0.60
2018-02-04T05:18:47.686Z,-0.70
2018-02-04T05:21:15.242Z,-0.70
2018-02-04T05:23:42.811Z,-0.80
2018-02-04T05:26:10.368Z,-0.80
2018-02-04T05:28:37.939Z,-0.80
2018-02-04T05:31:05.492Z,-0.90
2018-02-04T05:33:33.039Z,-0.90
2018-02-04T05:36:00.595Z,-0.90
2018-02-04T05:38:28.149Z,-1.00
2018-02-04T05:46:46.447Z,-0.90
2018-02-04T05:49:14.022Z,-0.70
2018-02-04T05:51:41.590Z,-0.60
2018-02-04T05:54:09.158Z,-0.50
2018-02-04T05:56:36.710Z,-0.40
2018-02-04T05:59:04.303Z,-0.30
2018-02-04T06:01:31.858Z,-0.20
2018-02-04T06:03:59.415Z,-0.10
2018-02-04T06:06:27.743Z,-0.10
2018-02-04T06:08:55.297Z,-0.10
2018-02-04T06:11:22.885Z,0.00
2018-02-04T06:13:50.448Z,0.00
2018-02-04T06:22:13.477Z,-0.10
2018-02-04T06:24:41.035Z,-0.20
2018-02-04T06:27:09.374Z,-0.30
2018-02-04T06:29:36.937Z,-0.30
2018-02-04T06:32:04.573Z,-0.40
2018-02-04T06:34:32.147Z,-0.40
2018-02-04T06:37:00.534Z,-0.40
2018-02-04T06:42:26.455Z,-0.60
2018-02-04T06:45:15.124Z,-0.60
2018-02-04T06:47:57.019Z,-0.50
2018-02-04T06:50:29.393Z,-0.50
2018-02-04T06:52:56.970Z,-0.40
2018-02-04T06:55:26.531Z,-0.20
2018-02-04T06:58:00.133Z,-0.20
2018-02-04T07:00:27.692Z,-0.20
2018-02-04T07:02:55.282Z,-0.20
2018-02-04T07:08:29.653Z,-0.20
2018-02-04T07:10:57.985Z,-0.20
2018-02-04T07:13:25.537Z,-0.20
2018-02-04T07:15:53.104Z,-0.20
2018-02-04T07:18:34.203Z,-0.10
2018-02-04T07:21:02.714Z,0.00
2018-02-04T07:23:55.843Z,0.00
2018-02-04T07:29:27.948Z,0.20
2018-02-04T07:31:56.250Z,0.30
2018-02-04T07:34:39.672Z,0.50
2018-02-04T07:37:08.518Z,0.50
2018-02-04T07:39:36.065Z,0.60
2018-02-04T07:42:03.610Z,0.60
2018-02-04T07:44:31.155Z,0.60
2018-02-04T07:46:58.712Z,0.60
2018-02-04T07:49:46.323Z,0.80
2018-02-04T07:52:13.861Z,0.70
2018-02-04T07:54:41.438Z,0.80
2018-02-04T07:57:08.982Z,0.90
2018-02-04T07:59:43.651Z,0.90
2018-02-04T08:02:12.030Z,1.10
2018-02-04T08:04:39.591Z,1.10
2018-02-04T08:07:07.898Z,1.20
2018-02-04T08:09:35.450Z,1.20
2018-02-04T08:12:02.998Z,1.20
2018-02-04T08:14:30.575Z,1.20
2018-02-04T08:17:12.511Z,1.30
2018-02-04T08:19:40.093Z,1.40
2018-02-04T08:22:08.405Z,1.60
2018-02-04T08:24:35.960Z,1.60
2018-02-04T08:27:03.523Z,1.80
2018-02-04T08:29:31.082Z,1.80
2018-02-04T08:31:58.662Z,1.90
2018-02-04T08:34:26.228Z,1.90
2018-02-04T08:36:53.808Z,1.90
2018-02-04T08:39:21.381Z,1.90
2018-02-04T08:41:48.942Z,1.90
2018-02-04T08:44:18.518Z,1.90
2018-02-04T08:46:46.066Z,2.00
2018-02-04T08:49:13.614Z,2.10
2018-02-04T08:51:41.168Z,2.20
2018-02-04T08:54:08.721Z,2.40
2018-02-04T08:56:43.014Z,2.60
2018-02-04T08:59:10.554Z,2.70
2018-02-04T09:01:38.133Z,2.80
2018-02-04T09:04:06.460Z,2.90
2018-02-04T09:06:34.007Z,2.90
2018-02-04T09:09:01.612Z,3.00
2018-02-04T09:11:29.164Z,3.10
2018-02-04T09:14:05.008Z,2.90
2018-02-04T09:16:32.579Z,2.70
2018-02-04T09:19:00.122Z,2.50
2018-02-04T09:21:27.672Z,2.40
2018-02-04T09:23:55.222Z,2.40
2018-02-04T09:26:22.793Z,2.40
2018-02-04T09:28:50.345Z,2.40
2018-02-04T09:31:17.891Z,2.30
2018-02-04T09:33:45.443Z,2.30
2018-02-04T09:36:13.748Z,2.30
2018-02-04T09:38:41.325Z,2.30
2018-02-04T09:41:08.978Z,2.40
2018-02-04T09:43:36.523Z,2.40
2018-02-04T09:46:04.063Z,2.40
2018-02-04T09:48:32.365Z,2.60
2018-02-04T09:50:59.933Z,2.60
2018-02-04T09:53:27.490Z,2.60
2018-02-04T09:55:55.027Z,2.70
2018-02-04T09:58:23.457Z,2.70
2018-02-04T10:00:51.195Z,2.70
2018-02-04T10:03:20.787Z,2.80
2018-02-04T10:05:48.380Z,2.90
2018-02-04T10:08:15.953Z,3.00
2018-02-04T10:10:44.379Z,3.20
2018-02-04T10:13:13.716Z,3.50
2018-02-04T10:15:41.258Z,3.40
2018-02-04T10:18:12.230Z,3.60
2018-02-04T10:20:39.809Z,3.70
2018-02-04T10:23:07.351Z,3.70
2018-02-04T10:25:34.909Z,3.80
2018-02-04T10:28:25.918Z,4.00
2018-02-04T10:30:53.470Z,4.20
2018-02-04T10:33:21.051Z,4.30
2018-02-04T10:35:48.616Z,4.40
2018-02-04T10:38:16.172Z,4.40
2018-02-04T10:40:43.729Z,4.60
2018-02-04T10:43:12.285Z,4.60
2018-02-04T10:45:39.892Z,4.50
2018-02-04T10:48:07.434Z,4.30
2018-02-04T10:50:35.002Z,4.40
2018-02-04T10:53:02.555Z,4.40
2018-02-04T10:55:30.115Z,4.10
2018-02-04T10:58:05.795Z,3.80
2018-02-04T11:00:36.061Z,3.70
2018-02-04T11:03:10.070Z,3.60
2018-02-04T11:05:37.614Z,3.80
2018-02-04T11:08:06.078Z,4.00
2018-02-04T11:10:34.397Z,4.10
2018-02-04T11:13:01.947Z,4.10
2018-02-04T11:15:29.530Z,4.10
2018-02-04T11:17:57.087Z,4.00
2018-02-04T11:20:24.642Z,3.80
2018-02-04T11:22:52.956Z,3.70
2018-02-04T11:25:20.504Z,3.60
2018-02-04T11:33:59.590Z,3.40
2018-02-04T11:36:27.134Z,3.30
2018-02-04T11:38:54.702Z,3.40
2018-02-04T11:41:22.249Z,3.50
2018-02-04T11:43:49.786Z,3.50
2018-02-04T11:46:17.329Z,3.50
2018-02-04T11:48:50.814Z,3.70
2018-02-04T11:51:18.384Z,3.90
2018-02-04T11:53:45.922Z,4.00
2018-02-04T11:56:14.238Z,4.40
2018-02-04T11:58:41.787Z,4.40
2018-02-04T12:01:09.347Z,4.40
2018-02-04T12:03:36.934Z,4.30
2018-02-04T12:06:04.476Z,4.20
2018-02-04T12:08:33.978Z,4.30
2018-02-04T12:11:01.530Z,4.30
2018-02-04T12:13:29.115Z,4.20
2018-02-04T12:16:10.042Z,4.20
2018-02-04T12:18:38.366Z,4.40
2018-02-04T12:21:05.912Z,4.30
2018-02-04T12:23:33.472Z,4.40
2018-02-04T12:26:01.028Z,4.40
2018-02-04T12:28:28.608Z,4.40
2018-02-04T12:30:56.152Z,4.40
2018-02-04T12:33:23.707Z,4.50
2018-02-04T12:35:52.186Z,4.50
2018-02-04T12:38:19.734Z,4.40
2018-02-04T12:40:52.140Z,4.10
2018-02-04T12:43:19.714Z,4.10
2018-02-04T12:45:47.263Z,4.00
2018-02-04T12:48:14.833Z,3.80
2018-02-04T12:50:44.422Z,3.70
2018-02-04T12:53:13.016Z,3.50
2018-02-04T12:55:40.567Z,3.30
2018-02-04T12:58:08.115Z,3.30
2018-02-04T13:00:46.312Z,3.20
2018-02-04T13:03:13.902Z,3.20
2018-02-04T13:05:41.477Z,3.10
2018-02-04T13:08:09.013Z,2.90
2018-02-04T13:10:36.554Z,2.70
2018-02-04T13:13:04.110Z,2.30
2018-02-04T13:15:31.648Z,2.20
2018-02-04T13:17:59.253Z,2.20
2018-02-04T13:20:26.802Z,2.10
2018-02-04T13:22:54.351Z,2.20
2018-02-04T13:25:22.662Z,2.00
2018-02-04T13:27:50.218Z,2.00
2018-02-04T13:30:17.779Z,2.00
2018-02-04T13:32:45.322Z,2.00
2018-02-04T13:35:12.858Z,1.80
2018-02-04T13:37:41.171Z,1.60
2018-02-04T13:40:11.923Z,1.60
2018-02-04T13:42:39.494Z,1.50
2018-02-04T13:45:07.047Z,1.30
2018-02-04T13:47:34.593Z,1.30
2018-02-04T13:50:02.130Z,1.30
2018-02-04T13:52:37.494Z,1.30
2018-02-04T13:55:05.068Z,1.30
2018-02-04T13:57:32.617Z,1.30
2018-02-04T14:00:01.191Z,1.20
2018-02-04T14:02:28.757Z,1.20
2018-02-04T14:04:56.329Z,1.10
2018-02-04T14:07:23.909Z,1.10
2018-02-04T14:09:51.452Z,1.10
2018-02-04T14:12:18.998Z,1.10
2018-02-04T14:14:53.079Z,1.10
2018-02-04T14:17:20.637Z,1.10
2018-02-04T14:19:48.963Z,1.10
2018-02-04T14:22:16.615Z,1.10
2018-02-04T14:24:44.158Z,1.20
2018-02-04T14:27:13.249Z,1.20
2018-02-04T14:29:40.789Z,1.10
2018-02-04T14:32:09.128Z,1.00
2018-02-04T14:34:36.671Z,1.00
2018-02-04T14:37:04.224Z,1.00
2018-02-04T14:39:31.768Z,1.00
2018-02-04T14:41:59.408Z,1.00
2018-02-04T14:44:27.754Z,1.00
2018-02-04T14:46:55.402Z,1.00
2018-02-04T14:49:22.938Z,0.90
2018-02-04T14:51:50.472Z,0.80
2018-02-04T14:54:18.777Z,0.80
2018-02-04T14:56:46.346Z,0.70
2018-02-04T14:59:13.897Z,0.80
2018-02-04T15:01:41.452Z,0.80
2018-02-04T15:04:21.070Z,0.80
2018-02-04T15:06:49.384Z,0.70
2018-02-04T15:09:16.953Z,0.70
2018-02-04T15:11:44.502Z,0.70
2018-02-04T15:14:12.138Z,0.70
2018-02-04T15:16:39.685Z,0.60
2018-02-04T15:19:08.000Z,0.50
2018-02-04T15:21:35.580Z,0.50
2018-02-04T15:24:03.120Z,0.50
2018-02-04T15:26:30.698Z,0.50
2018-02-04T15:28:58.245Z,0.50
2018-02-04T15:31:25.806Z,0.50
2018-02-04T15:33:54.430Z,0.50
2018-02-04T15:36:22.006Z,0.50
2018-02-04T15:38:50.343Z,0.50
2018-02-04T15:41:17.883Z,0.50
2018-02-04T15:43:45.479Z,0.60
2018-02-04T15:46:13.056Z,0.60
2018-02-04T15:48:40.599Z,0.70
2018-02-04T15:51:08.131Z,0.80
2018-02-04T15:53:35.671Z,0.80
2018-02-04T15:56:03.215Z,0.80
2018-02-04T15:58:30.811Z,0.80
2018-02-04T16:00:58.414Z,0.80
2018-02-04T16:03:25.954Z,0.80
2018-02-04T16:05:53.496Z,0.80
2018-02-04T16:08:21.051Z,0.80
2018-02-04T16:10:48.625Z,0.70
2018-02-04T16:13:16.171Z,0.60
2018-02-04T16:15:48.259Z,0.60
2018-02-04T16:18:15.851Z,0.60
2018-02-04T16:20:43.377Z,0.50
2018-02-04T16:23:10.918Z,0.50
2018-02-04T16:25:38.458Z,0.40
2018-02-04T16:28:06.026Z,0.40
2018-02-04T16:30:33.575Z,0.40
2018-02-04T16:33:01.114Z,0.30
2018-02-04T16:35:29.455Z,0.20
2018-02-04T16:37:57.006Z,0.20
2018-02-04T16:40:26.522Z,0.20
2018-02-04T16:42:54.067Z,0.20
2018-02-04T16:45:21.623Z,0.20
2018-02-04T16:47:49.191Z,0.20
2018-02-04T16:50:16.745Z,0.20
2018-02-04T16:55:46.227Z,0.20
2018-02-04T16:58:14.587Z,0.20
2018-02-04T17:00:42.134Z,0.20
2018-02-04T17:03:11.719Z,0.20
2018-02-04T17:05:41.216Z,0.20
2018-02-04T17:08:08.823Z,0.10
2018-02-04T17:10:36.375Z,0.10
2018-02-04T17:13:04.919Z,0.10
2018-02-04T17:15:33.406Z,0.00
2018-02-04T17:20:53.738Z,0.00
2018-02-04T17:23:21.306Z,0.00
2018-02-04T17:25:56.389Z,0.00
2018-02-04T17:28:27.994Z,0.00
2018-02-04T17:30:56.563Z,0.00
2018-02-04T17:33:24.113Z,0.00
2018-02-04T17:35:51.678Z,0.00
2018-02-04T17:38:23.641Z,0.00
2018-02-04T17:40:52.091Z,0.00
2018-02-04T17:43:19.643Z,0.00
2018-02-04T17:45:47.960Z,-0.10
2018-02-04T17:48:16.543Z,-0.10
2018-02-04T17:50:44.107Z,-0.10
2018-02-04T17:53:11.695Z,0.00
2018-02-04T17:55:39.266Z,0.00
2018-02-04T17:58:06.866Z,0.00
2018-02-04T18:00:34.456Z,0.10
2018-02-04T18:03:02.013Z,0.00
2018-02-04T18:05:29.590Z,0.10
2018-02-04T18:07:57.142Z,0.10
2018-02-04T18:10:26.630Z,0.10
2018-02-04T18:12:54.178Z,0.10
2018-02-04T18:15:34.370Z,0.00
2018-02-04T18:18:08.574Z,0.00
2018-02-04T18:20:39.423Z,0.00
2018-02-04T18:23:06.975Z,0.00
2018-02-04T18:25:39.936Z,0.00
2018-02-04T18:28:07.511Z,0.00
2018-02-04T18:30:38.464Z,0.00
2018-02-04T18:33:06.018Z,0.00
2018-02-04T18:35:33.586Z,0.00
2018-02-04T18:38:01.907Z,0.00
2018-02-04T18:40:30.230Z,0.00
2018-02-04T18:42:57.821Z,0.00
2018-02-04T18:45:26.163Z,0.00
2018-02-04T18:47:53.719Z,-0.10
2018-02-04T18:50:21.311Z,-0.10
2018-02-04T18:52:48.857Z,0.00
2018-02-04T18:55:16.435Z,-0.10
2018-02-04T18:57:44.049Z,-0.10
2018-02-04T19:00:12.347Z,-0.10
2018-02-04T19:02:39.906Z,-0.10
2018-02-04T19:05:07.466Z,-0.10
2018-02-04T19:07:35.054Z,-0.10
2018-02-04T19:10:02.643Z,-0.10
2018-02-04T19:12:30.970Z,-0.10
2018-02-04T19:15:15.164Z,-0.10
2018-02-04T19:17:43.492Z,-0.10
2018-02-04T19:20:11.084Z,-0.10
2018-02-04T19:22:38.969Z,0.00
2018-02-04T19:25:09.296Z,0.00
2018-02-04T19:27:37.628Z,-0.10
2018-02-04T19:30:08.811Z,-0.10
2018-02-04T19:32:36.409Z,-0.10
2018-02-04T19:35:03.974Z,0.00
2018-02-04T19:37:31.526Z,0.00
2018-02-04T19:39:59.099Z,0.00
2018-02-04T19:42:26.666Z,0.00
2018-02-04T19:45:15.193Z,0.00
2018-02-04T19:47:42.755Z,0.00
2018-02-04T19:50:20.482Z,-0.10
2018-02-04T19:52:48.035Z,0.00
2018-02-04T19:55:15.582Z,0.00
2018-02-04T19:57:46.599Z,0.00
2018-02-04T20:00:28.901Z,0.10
2018-02-04T20:03:05.712Z,0.00
2018-02-04T20:05:33.257Z,0.00
2018-02-04T20:08:01.569Z,0.10
2018-02-04T20:10:29.123Z,0.10
2018-02-04T20:12:56.719Z,0.10
2018-02-04T20:15:41.193Z,0.10
2018-02-04T20:18:10.482Z,0.00
2018-02-04T20:20:38.042Z,0.00
2018-02-04T20:23:05.598Z,0.00
2018-02-04T20:25:34.087Z,0.00
2018-02-04T20:28:04.976Z,0.10
2018-02-04T20:30:32.558Z,0.10
2018-02-04T20:33:11.818Z,0.10
2018-02-04T20:35:44.202Z,0.10
2018-02-04T20:38:22.517Z,0.10
2018-02-04T20:40:50.872Z,0.10
2018-02-04T20:43:18.431Z,0.10
2018-02-04T20:45:45.987Z,0.20
2018-02-04T20:48:14.549Z,0.10
2018-02-04T20:50:42.135Z,0.10
2018-02-04T20:53:09.703Z,0.20
2018-02-04T20:55:37.260Z,0.10
2018-02-04T20:58:04.816Z,0.20
2018-02-04T21:00:32.367Z,0.20
2018-02-04T21:02:59.937Z,0.20
2018-02-04T21:05:27.498Z,0.20
2018-02-04T21:07:55.055Z,0.20
2018-02-04T21:10:23.388Z,0.20
2018-02-04T21:12:50.926Z,0.20
2018-02-04T21:15:19.240Z,0.20
2018-02-04T21:17:46.788Z,0.20
2018-02-04T21:20:14.342Z,0.30
2018-02-04T21:22:41.954Z,0.20
2018-02-04T21:25:09.506Z,0.20
2018-02-04T21:27:37.073Z,0.30
2018-02-04T21:30:04.620Z,0.20
2018-02-04T21:32:32.172Z,0.20
2018-02-04T21:34:59.773Z,0.20
2018-02-04T21:37:27.323Z,0.20
2018-02-04T21:39:54.904Z,0.30
2018-02-04T21:42:23.223Z,0.20
2018-02-04T21:44:56.847Z,0.20
2018-02-04T21:47:24.422Z,0.20
2018-02-04T21:49:51.965Z,0.20
2018-02-04T21:52:19.518Z,0.20
2018-02-04T21:54:47.066Z,0.20
2018-02-04T21:57:14.624Z,0.10
2018-02-04T21:59:42.208Z,0.10
2018-02-04T22:02:09.790Z,0.10
2018-02-04T22:04:37.346Z,0.10
2018-02-04T22:07:04.895Z,0.10
2018-02-04T22:09:32.451Z,0.10
2018-02-04T22:12:00.037Z,0.10
2018-02-04T22:14:27.598Z,0.10
2018-02-04T22:16:55.928Z,0.20
2018-02-04T22:19:23.673Z,0.20
2018-02-04T22:21:51.251Z,0.20
2018-02-04T22:24:18.831Z,0.20
2018-02-04T22:26:46.389Z,0.20
2018-02-04T22:29:13.962Z,0.20
2018-02-04T22:31:41.515Z,0.30
2018-02-04T22:34:09.067Z,0.30
2018-02-04T22:36:36.663Z,0.30
2018-02-04T22:39:04.238Z,0.30
2018-02-04T22:41:32.727Z,0.20
2018-02-04T22:44:00.359Z,0.20
2018-02-04T22:46:27.912Z,0.20
2018-02-04T22:48:55.506Z,0.20
2018-02-04T22:51:23.838Z,0.20
2018-02-04T22:53:51.404Z,0.20
2018-02-04T22:56:18.956Z,0.30
2018-02-04T22:58:46.518Z,0.20
2018-02-04T23:01:14.113Z,0.30
2018-02-04T23:03:42.438Z,0.30
2018-02-04T23:06:10.000Z,0.30
2018-02-04T23:08:37.551Z,0.30
2018-02-04T23:11:05.100Z,0.30
2018-02-04T23:13:32.688Z,0.30
2018-02-04T23:16:00.244Z,0.30
2018-02-04T23:18:27.786Z,0.30
2018-02-04T23:20:55.347Z,0.30
2018-02-04T23:23:22.891Z,0.30
2018-02-04T23:25:50.477Z,0.40
2018-02-04T23:28:18.042Z,0.40
2018-02-04T23:30:45.598Z,0.40
2018-02-04T23:33:13.154Z,0.50
2018-02-04T23:35:40.720Z,0.50
2018-02-04T23:38:08.296Z,0.40
2018-02-04T23:40:35.857Z,0.40
2018-02-04T23:43:03.404Z,0.40
2018-02-04T23:45:30.959Z,0.30
2018-02-04T23:47:58.518Z,0.30
2018-02-04T23:50:26.098Z,0.20
2018-02-04T23:52:53.651Z,0.10
2018-02-04T23:55:21.204Z,0.00
2018-02-04T23:57:48.763Z,0.00
